createdAt,value
2022-10-05T00:00:00.166Z,100980.06
2022-10-05T00:02:27.173Z,100980.22
2022-10-05T00:04:56.244Z,100976.78
2022-10-05T00:07:24.575Z,100979.09
2022-10-05T00:09:57.154Z,100973.34
2022-10-05T00:12:25.160Z,100963.84
2022-10-05T00:14:56.734Z,100962.84
2022-10-05T00:17:25.823Z,100959.41
2022-10-05T00:19:53.907Z,100962.19
2022-10-05T00:22:29.824Z,100953.69
2022-10-05T00:25:00.145Z,100952.38
2022-10-05T00:27:32.690Z,100945.84
2022-10-05T00:30:07.772Z,100954.69
2022-10-05T00:32:34.342Z,100948.63
2022-10-05T00:35:00.886Z,100955.34
2022-10-05T00:37:27.725Z,100954.50
2022-10-05T00:39:54.528Z,100945.03
2022-10-05T00:43:10.169Z,100948.13
2022-10-05T00:45:44.014Z,100952.72
2022-10-05T00:48:29.952Z,100964.16
2022-10-05T00:50:59.310Z,100969.25
2022-10-05T00:53:39.287Z,100967.13
2022-10-05T00:56:17.932Z,100971.06
2022-10-05T00:58:47.560Z,100972.69
2022-10-05T01:01:17.994Z,100964.81
2022-10-05T01:03:44.879Z,100967.13
2022-10-05T01:06:27.500Z,100961.38
2022-10-05T01:09:09.521Z,100959.25
2022-10-05T01:11:48.941Z,100956.81
2022-10-05T01:14:15.501Z,100952.56
2022-10-05T01:16:52.123Z,100952.72
2022-10-05T01:19:40.961Z,100942.06
2022-10-05T01:22:38.239Z,100941.75
2022-10-05T01:25:26.927Z,100945.50
2022-10-05T01:28:03.620Z,100937.63
2022-10-05T01:30:42.808Z,100938.97
2022-10-05T01:33:24.855Z,100933.22
2022-10-05T01:35:56.762Z,100940.41
2022-10-05T01:38:40.854Z,100934.69
2022-10-05T01:41:14.014Z,100935.34
2022-10-05T01:43:43.417Z,100932.06
2022-10-05T01:46:39.021Z,100936.00
2022-10-05T01:49:46.260Z,100926.50
2022-10-05T01:52:40.580Z,100919.97
2022-10-05T01:55:45.685Z,100917.66
2022-10-05T01:58:19.915Z,100917.00
2022-10-05T02:01:18.190Z,100918.00
2022-10-05T02:03:54.382Z,100911.25
2022-10-05T02:06:25.141Z,100913.22
2022-10-05T02:09:04.888Z,100913.75
2022-10-05T02:11:33.454Z,100908.47
2022-10-05T02:14:10.796Z,100902.06
2022-10-05T02:16:44.211Z,100904.38
2022-10-05T02:19:26.876Z,100899.63
2022-10-05T02:22:05.264Z,100895.38
2022-10-05T02:24:44.698Z,100890.47
2022-10-05T02:27:17.556Z,100889.81
2022-10-05T02:29:48.142Z,100887.34
2022-10-05T02:32:22.630Z,100885.22
2022-10-05T02:34:49.891Z,100889.81
2022-10-05T02:37:30.073Z,100883.59
2022-10-05T02:40:15.599Z,100894.06
2022-10-05T02:43:13.659Z,100890.81
2022-10-05T02:46:14.427Z,100885.22
2022-10-05T02:48:46.758Z,100879.66
2022-10-05T02:51:50.727Z,100882.28
2022-10-05T02:54:30.048Z,100877.72
2022-10-05T02:57:13.620Z,100878.50
2022-10-05T03:00:08.720Z,100872.44
2022-10-05T03:02:54.983Z,100874.56
2022-10-05T03:05:30.820Z,100869.47
2022-10-05T03:08:07.713Z,100866.72
2022-10-05T03:10:45.908Z,100852.78
2022-10-05T03:13:26.533Z,100852.09
2022-10-05T03:16:33.200Z,100841.00
2022-10-05T03:19:10.451Z,100839.69
2022-10-05T03:21:57.053Z,100840.53
2022-10-05T03:25:01.796Z,100836.91
2022-10-05T03:27:44.822Z,100842.28
2022-10-05T03:30:18.891Z,100834.94
2022-10-05T03:33:18.452Z,100832.47
2022-10-05T03:36:00.026Z,100838.53
2022-10-05T03:38:43.812Z,100844.59
2022-10-05T03:41:35.102Z,100835.44
2022-10-05T03:44:31.835Z,100832.34
2022-10-05T03:47:07.763Z,100832.47
2022-10-05T03:49:53.496Z,100829.66
2022-10-05T03:52:27.679Z,100826.25
2022-10-05T03:55:05.579Z,100829.22
2022-10-05T03:57:38.902Z,100829.38
2022-10-05T04:00:09.051Z,100829.38
2022-10-05T04:02:46.835Z,100825.47
2022-10-05T04:05:18.244Z,100825.47
2022-10-05T04:07:54.003Z,100815.63
2022-10-05T04:10:40.200Z,100819.53
2022-10-05T04:13:18.509Z,100824.78
2022-10-05T04:15:51.110Z,100825.28
2022-10-05T04:18:45.354Z,100824.13
2022-10-05T04:21:29.391Z,100827.72
2022-10-05T04:24:01.101Z,100833.16
2022-10-05T04:26:39.930Z,100828.25
2022-10-05T04:29:53.985Z,100832.47
2022-10-05T04:32:52.451Z,100836.25
2022-10-05T04:35:53.803Z,100834.13
2022-10-05T04:38:40.412Z,100826.25
2022-10-05T04:41:16.905Z,100828.38
2022-10-05T05:08:51.432Z,100826.72
2022-10-05T05:11:34.757Z,100822.66
2022-10-05T05:14:16.732Z,100825.78
2022-10-05T05:16:49.145Z,100821.50
2022-10-05T05:19:41.301Z,100814.81
2022-10-05T05:22:34.310Z,100812.66
2022-10-05T05:25:01.075Z,100808.59
2022-10-05T05:27:45.768Z,100812.50
2022-10-05T05:30:21.853Z,100823.66
2022-10-05T05:33:03.154Z,100814.81
2022-10-05T05:35:41.700Z,100817.13
2022-10-05T05:38:17.341Z,100818.75
2022-10-05T05:41:18.796Z,100822.69
2022-10-05T05:44:24.069Z,100813.50
2022-10-05T05:47:13.915Z,100818.41
2022-10-05T05:50:05.767Z,100820.38
2022-10-05T05:52:41.675Z,100820.88
2022-10-05T05:55:14.065Z,100813.50
2022-10-05T05:57:47.157Z,100817.13
2022-10-05T06:00:14.015Z,100810.56
2022-10-05T06:02:54.946Z,100814.66
2022-10-05T06:05:30.424Z,100804.66
2022-10-05T06:08:07.060Z,100802.38
2022-10-05T06:10:42.886Z,100801.72
2022-10-05T06:13:20.501Z,100810.22
2022-10-05T06:16:08.389Z,100808.44
2022-10-05T06:18:39.665Z,100809.09
2022-10-05T06:21:25.141Z,100806.00
2022-10-05T06:24:03.812Z,100800.91
2022-10-05T06:27:09.226Z,100805.81
2022-10-05T06:29:56.404Z,100804.63
2022-10-05T06:32:49.957Z,100804.88
2022-10-05T06:35:57.706Z,100799.31
2022-10-05T06:38:33.170Z,100798.25
2022-10-05T06:41:09.817Z,100799.53
2022-10-05T06:44:08.256Z,100796.47
2022-10-05T06:47:04.970Z,100789.75
2022-10-05T06:50:21.565Z,100793.00
2022-10-05T07:02:33.015Z,100785.69
2022-10-05T07:11:33.434Z,100784.16
2022-10-05T07:23:20.608Z,100790.03
2022-10-05T07:26:21.960Z,100780.88
2022-10-05T07:29:08.012Z,100787.13
2022-10-05T07:32:03.201Z,100781.28
2022-10-05T07:34:58.419Z,100782.91
2022-10-05T07:37:50.744Z,100784.22
2022-10-05T07:40:40.381Z,100777.34
2022-10-05T07:44:08.887Z,100777.97
2022-10-05T07:47:09.340Z,100791.91
2022-10-05T07:49:59.845Z,100788.09
2022-10-05T07:52:39.881Z,100793.88
2022-10-05T07:55:32.625Z,100784.53
2022-10-05T07:58:07.782Z,100785.50
2022-10-05T08:01:00.540Z,100786.19
2022-10-05T08:04:03.420Z,100786.19
2022-10-05T08:15:46.142Z,100804.19
2022-10-05T08:18:50.252Z,100801.75
2022-10-05T08:21:22.960Z,100796.66
2022-10-05T08:23:56.615Z,100794.84
2022-10-05T08:26:26.167Z,100798.25
2022-10-05T08:29:14.172Z,100801.88
2022-10-05T08:31:44.193Z,100799.72
2022-10-05T08:34:31.006Z,100798.97
2022-10-05T08:37:03.340Z,100797.31
2022-10-05T08:39:36.128Z,100800.59
2022-10-05T08:42:08.770Z,100803.84
2022-10-05T08:45:12.701Z,100808.47
2022-10-05T08:47:57.488Z,100802.88
2022-10-05T08:50:31.144Z,100798.00
2022-10-05T08:53:54.474Z,100799.63
2022-10-05T08:56:34.033Z,100794.03
2022-10-05T08:59:01.220Z,100790.72
2022-10-05T09:02:05.418Z,100795.00
2022-10-05T09:05:00.811Z,100790.09
2022-10-05T09:07:49.426Z,100787.81
2022-10-05T09:10:30.925Z,100782.09
2022-10-05T09:13:12.798Z,100786.84
2022-10-05T09:16:03.349Z,100774.56
2022-10-05T09:18:45.293Z,100766.88
2022-10-05T09:21:26.577Z,100775.69
2022-10-05T09:24:07.820Z,100776.84
2022-10-05T09:26:40.575Z,100775.53
2022-10-05T09:29:12.909Z,100773.75
2022-10-05T09:32:01.280Z,100764.25
2022-10-05T09:34:53.671Z,100779.16
2022-10-05T09:37:41.955Z,100774.59
2022-10-05T09:40:36.551Z,100770.31
2022-10-05T09:43:08.612Z,100771.47
2022-10-05T09:45:48.660Z,100759.84
2022-10-05T09:48:15.186Z,100761.00
2022-10-05T09:51:09.608Z,100761.47
2022-10-05T09:54:05.679Z,100749.66
2022-10-05T09:57:09.899Z,100758.34
2022-10-05T10:03:09.787Z,100754.56
2022-10-05T10:05:48.454Z,100742.13
2022-10-05T10:08:26.863Z,100756.00
2022-10-05T10:11:19.496Z,100755.63
2022-10-05T10:13:55.859Z,100750.81
2022-10-05T10:16:25.304Z,100747.34
2022-10-05T10:18:52.179Z,100743.72
2022-10-05T10:21:45.540Z,100743.97
2022-10-05T10:24:24.452Z,100735.47
2022-10-05T10:27:49.082Z,100734.16
2022-10-05T10:30:36.781Z,100737.00
2022-10-05T10:33:40.846Z,100735.19
2022-10-05T10:36:15.923Z,100737.72
2022-10-05T10:39:18.082Z,100727.16
2022-10-05T10:42:15.224Z,100726.22
2022-10-05T10:44:56.066Z,100725.72
2022-10-05T10:47:40.973Z,100725.72
2022-10-05T10:50:37.458Z,100712.28
2022-10-05T10:53:31.566Z,100714.72
2022-10-05T10:56:29.469Z,100707.84
2022-10-05T10:59:20.348Z,100698.97
2022-10-05T11:02:20.412Z,100698.97
2022-10-05T11:05:16.500Z,100693.84
2022-10-05T11:08:15.109Z,100694.53
2022-10-05T11:10:46.207Z,100689.31
2022-10-05T11:13:52.546Z,100680.47
2022-10-05T11:16:19.809Z,100681.44
2022-10-05T11:19:35.070Z,100677.34
2022-10-05T11:22:17.326Z,100663.75
2022-10-05T11:25:01.378Z,100665.59
2022-10-05T11:27:42.915Z,100656.56
2022-10-05T11:30:50.314Z,100639.00
2022-10-05T11:33:45.389Z,100644.72
2022-10-05T11:36:18.071Z,100633.44
2022-10-05T11:38:48.206Z,100636.91
2022-10-05T11:41:28.576Z,100630.88
2022-10-05T11:44:15.893Z,100636.06
2022-10-05T11:46:54.783Z,100630.72
2022-10-05T11:49:43.456Z,100625.16
2022-10-05T11:52:23.966Z,100625.16
2022-10-05T11:55:09.789Z,100619.16
2022-10-05T11:57:49.251Z,100612.91
2022-10-05T12:00:20.962Z,100609.78
2022-10-05T12:03:20.532Z,100608.97
2022-10-05T12:06:05.903Z,100599.25
2022-10-05T12:08:32.602Z,100602.72
2022-10-05T12:11:36.781Z,100592.75
2022-10-05T12:14:38.704Z,100588.56
2022-10-05T12:17:47.279Z,100571.97
2022-10-05T12:20:23.020Z,100575.09
2022-10-05T12:23:15.066Z,100560.59
2022-10-05T12:26:00.630Z,100551.16
2022-10-05T12:28:55.672Z,100545.38
2022-10-05T12:32:02.993Z,100548.53
2022-10-05T12:35:04.564Z,100549.56
2022-10-05T12:37:40.251Z,100538.88
2022-10-05T12:40:18.882Z,100539.84
2022-10-05T12:42:54.657Z,100540.31
2022-10-05T12:45:43.414Z,100531.81
2022-10-05T12:48:27.854Z,100541.06
2022-10-05T12:51:08.960Z,100528.25
2022-10-05T12:54:01.276Z,100525.03
2022-10-05T12:56:43.396Z,100532.00
2022-10-05T12:59:24.600Z,100520.88
2022-10-05T13:02:05.745Z,100525.97
2022-10-05T13:04:48.069Z,100519.47
2022-10-05T13:07:25.406Z,100518.78
2022-10-05T13:10:27.957Z,100514.81
2022-10-05T13:13:13.804Z,100511.31
2022-10-05T13:15:49.848Z,100509.59
2022-10-05T13:18:49.771Z,100505.66
2022-10-05T13:21:30.477Z,100507.50
2022-10-05T13:24:12.223Z,100505.88
2022-10-05T13:26:52.328Z,100510.91
2022-10-05T13:29:45.689Z,100510.66
2022-10-05T13:32:23.847Z,100514.84
2022-10-05T13:34:53.251Z,100517.88
2022-10-05T13:37:34.912Z,100519.47
2022-10-05T13:40:20.053Z,100509.97
2022-10-05T13:42:53.711Z,100501.13
2022-10-05T13:45:24.567Z,100506.94
2022-10-05T13:48:06.495Z,100518.34
2022-10-05T13:50:54.312Z,100523.91
2022-10-05T13:53:48.717Z,100529.72
2022-10-05T13:56:15.285Z,100536.22
2022-10-05T13:58:51.008Z,100528.31
2022-10-05T14:01:25.017Z,100534.84
2022-10-05T14:04:05.149Z,100537.63
2022-10-05T14:06:35.073Z,100543.66
2022-10-05T14:09:01.912Z,100546.00
2022-10-05T14:11:34.949Z,100545.75
2022-10-05T14:14:10.758Z,100545.06
2022-10-05T14:16:50.943Z,100540.19
2022-10-05T14:19:24.184Z,100546.59
2022-10-05T14:21:58.863Z,100553.44
2022-10-05T14:24:45.067Z,100554.59
2022-10-05T14:27:21.103Z,100555.66
2022-10-05T14:30:20.069Z,100566.25
2022-10-05T14:32:49.956Z,100571.63
2022-10-05T14:35:20.676Z,100577.97
2022-10-05T14:38:01.066Z,100580.44
2022-10-05T14:40:36.902Z,100578.59
2022-10-05T14:43:15.589Z,100589.06
2022-10-05T14:46:13.378Z,100585.31
2022-10-05T14:48:45.030Z,100599.97
2022-10-05T14:51:32.157Z,100598.69
2022-10-05T14:54:01.990Z,100599.31
2022-10-05T14:56:54.237Z,100605.84
2022-10-05T14:59:29.705Z,100615.13
2022-10-05T15:02:15.682Z,100606.84
2022-10-05T15:05:00.577Z,100610.09
2022-10-05T15:07:39.799Z,100627.00
2022-10-05T15:10:06.314Z,100629.53
2022-10-05T15:12:41.464Z,100629.31
2022-10-05T15:15:25.714Z,100637.00
2022-10-05T15:17:59.410Z,100648.19
2022-10-05T15:20:41.264Z,100648.88
2022-10-05T15:23:15.129Z,100652.81
2022-10-05T15:25:51.704Z,100674.34
2022-10-05T15:28:27.074Z,100678.91
2022-10-05T15:31:13.413Z,100678.22
2022-10-05T15:33:50.686Z,100683.53
2022-10-05T15:36:49.377Z,100686.00
2022-10-05T15:39:36.464Z,100696.13
2022-10-05T15:42:17.467Z,100698.69
2022-10-05T15:44:56.395Z,100712.66
2022-10-05T15:47:34.462Z,100703.81
2022-10-05T15:50:16.661Z,100711.50
2022-10-05T15:52:58.957Z,100716.97
2022-10-05T15:55:25.421Z,100717.78
2022-10-05T15:57:55.378Z,100723.13
2022-10-05T16:00:23.415Z,100740.13
2022-10-05T16:02:58.109Z,100722.53
2022-10-05T16:06:08.030Z,100729.41
2022-10-05T16:08:54.150Z,100738.59
2022-10-05T16:11:40.661Z,100735.69
2022-10-05T16:14:28.757Z,100744.78
2022-10-05T16:17:25.915Z,100740.59
2022-10-05T16:20:17.030Z,100750.38
2022-10-05T16:22:59.712Z,100748.03
2022-10-05T16:25:44.109Z,100746.28
2022-10-05T16:28:39.731Z,100749.66
2022-10-05T16:31:26.628Z,100746.66
2022-10-05T16:34:22.246Z,100750.38
2022-10-05T16:37:01.002Z,100734.53
2022-10-05T16:39:50.185Z,100751.31
2022-10-05T16:42:41.984Z,100745.03
2022-10-05T16:45:27.536Z,100745.28
2022-10-05T16:48:26.820Z,100747.25
2022-10-05T16:51:03.042Z,100747.25
2022-10-05T16:53:40.248Z,100751.53
2022-10-05T16:56:13.559Z,100769.50
2022-10-05T16:59:06.808Z,100761.13
2022-10-05T17:02:14.324Z,100771.09
2022-10-05T17:05:12.799Z,100765.97
2022-10-05T17:07:54.409Z,100771.56
2022-10-05T17:10:29.060Z,100760.03
2022-10-05T17:13:11.612Z,100755.50
2022-10-05T17:15:53.094Z,100764.25
2022-10-05T17:18:44.502Z,100776.09
2022-10-05T17:21:37.668Z,100782.97
2022-10-05T17:24:32.335Z,100777.38
2022-10-05T17:27:17.885Z,100786.59
2022-10-05T17:29:55.477Z,100796.25
2022-10-05T17:32:22.028Z,100792.97
2022-10-05T17:35:00.726Z,100792.19
2022-10-05T17:37:27.168Z,100800.88
2022-10-05T17:39:58.993Z,100798.56
2022-10-05T17:42:32.490Z,100802.03
2022-10-05T17:45:20.684Z,100810.09
2022-10-05T17:47:58.672Z,100813.72
2022-10-05T17:51:06.038Z,100819.75
2022-10-05T17:54:03.233Z,100825.69
2022-10-05T17:56:32.240Z,100819.75
2022-10-05T17:59:01.951Z,100815.31
2022-10-05T18:01:39.797Z,100823.59
2022-10-05T18:04:12.452Z,100830.69
2022-10-05T18:06:43.937Z,100824.97
2022-10-05T18:09:22.879Z,100824.88
2022-10-05T18:12:08.107Z,100829.78
2022-10-05T18:15:05.696Z,100834.69
2022-10-05T18:17:47.739Z,100822.56
2022-10-05T18:20:26.671Z,100836.53
2022-10-05T18:23:14.530Z,100836.16
2022-10-05T18:25:43.826Z,100829.78
2022-10-05T18:28:34.814Z,100822.19
2022-10-05T18:31:16.453Z,100831.41
2022-10-05T18:33:50.541Z,100838.16
2022-10-05T18:36:38.188Z,100836.06
2022-10-05T18:39:35.609Z,100839.31
2022-10-05T18:42:13.771Z,100833.72
2022-10-05T18:44:49.390Z,100844.91
2022-10-05T18:47:47.191Z,100855.38
2022-10-05T18:50:21.934Z,100864.47
2022-10-05T18:53:23.558Z,100859.69
2022-10-05T18:56:03.913Z,100858.03
2022-10-05T18:59:09.966Z,100864.00
2022-10-05T19:01:56.878Z,100879.56
2022-10-05T19:04:41.928Z,100876.00
2022-10-05T19:07:29.347Z,100876.59
2022-10-05T19:10:44.901Z,100872.84
2022-10-05T19:13:37.787Z,100861.66
2022-10-05T19:16:20.224Z,100864.81
2022-10-05T19:19:04.475Z,100871.19
2022-10-05T19:21:46.110Z,100873.66
2022-10-05T19:24:42.512Z,100885.66
2022-10-05T19:27:27.619Z,100891.25
2022-10-05T19:30:20.140Z,100896.84
2022-10-05T19:33:18.324Z,100894.84
2022-10-05T19:35:59.758Z,100892.03
2022-10-05T19:38:44.574Z,100894.50
2022-10-05T19:41:18.608Z,100896.84
2022-10-05T19:43:51.077Z,100900.78
2022-10-05T19:46:30.919Z,100903.56
2022-10-05T19:48:57.783Z,100904.03
2022-10-05T19:51:30.564Z,100907.19
2022-10-05T19:54:02.032Z,100913.59
2022-10-05T19:56:33.524Z,100918.38
2022-10-05T19:59:24.517Z,100921.28
2022-10-05T20:01:54.055Z,100920.81
2022-10-05T20:04:34.381Z,100927.59
2022-10-05T20:07:02.343Z,100919.28
2022-10-05T20:09:39.749Z,100920.72
2022-10-05T20:12:06.409Z,100922.44
2022-10-05T20:14:33.734Z,100923.94
2022-10-05T20:17:57.564Z,100938.06
2022-10-05T20:20:47.123Z,100930.38
2022-10-05T20:23:23.524Z,100935.28
2022-10-05T20:26:11.046Z,100939.41
2022-10-05T20:28:38.063Z,100942.94
2022-10-05T20:31:07.599Z,100950.25
2022-10-05T20:33:34.479Z,100954.22
2022-10-05T20:36:03.471Z,100969.13
2022-10-05T20:38:34.395Z,100967.97
2022-10-05T20:41:02.889Z,100970.47
2022-10-05T20:43:29.572Z,100976.75
2022-10-05T20:45:56.318Z,100983.72
2022-10-05T20:48:24.464Z,100990.22
2022-10-05T20:50:51.575Z,100993.06
2022-10-05T20:53:18.145Z,101009.47
2022-10-05T20:55:44.753Z,101049.31
2022-10-05T20:58:11.375Z,101098.94
2022-10-05T21:00:56.756Z,101095.69
2022-10-05T21:03:23.581Z,101099.78
2022-10-05T21:05:50.366Z,101104.06
2022-10-05T21:08:17.805Z,101109.16
2022-10-05T21:10:44.702Z,101104.88
2022-10-05T21:13:11.530Z,101106.88
2022-10-05T21:15:38.294Z,101099.16
2022-10-05T21:18:05.005Z,101104.94
2022-10-05T21:20:31.556Z,101117.97
2022-10-05T21:22:58.280Z,101114.91
2022-10-05T21:25:24.933Z,101135.34
2022-10-05T21:28:22.567Z,101140.81
2022-10-05T21:30:49.420Z,101132.09
2022-10-05T21:33:16.152Z,101133.44
2022-10-05T21:35:42.904Z,101132.97
2022-10-05T21:38:09.617Z,101130.44
2022-10-05T21:40:36.289Z,101132.47
2022-10-05T21:43:02.921Z,101132.00
2022-10-05T21:45:30.379Z,101128.91
2022-10-05T21:47:59.978Z,101143.22
2022-10-05T21:50:26.957Z,101141.47
2022-10-05T21:52:54.653Z,101151.00
2022-10-05T21:55:21.320Z,101155.09
2022-10-05T21:57:47.901Z,101165.28
2022-10-05T22:00:16.425Z,101169.91
2022-10-05T22:02:43.261Z,101168.13
2022-10-05T22:05:10.051Z,101181.63
2022-10-05T22:07:36.665Z,101189.50
2022-10-05T22:10:05.646Z,101200.16
2022-10-05T22:12:33.759Z,101201.31
2022-10-05T22:15:00.746Z,101201.31
2022-10-05T22:17:30.984Z,101203.66
2022-10-05T22:20:01.493Z,101205.94
2022-10-05T22:22:28.991Z,101215.47
2022-10-05T22:24:56.079Z,101217.78
2022-10-05T22:27:25.228Z,101228.28
2022-10-05T22:29:52.559Z,101227.31
2022-10-05T22:32:19.215Z,101243.25
2022-10-05T22:34:45.905Z,101253.59
2022-10-05T22:37:15.717Z,101267.06
2022-10-05T22:39:43.411Z,101268.69
2022-10-05T22:42:10.236Z,101285.44
2022-10-05T22:44:36.818Z,101284.66
2022-10-05T22:47:03.825Z,101300.59
2022-10-05T22:49:30.496Z,101302.88
2022-10-05T22:51:57.498Z,101302.88
2022-10-05T22:54:28.717Z,101300.75
2022-10-05T22:56:56.261Z,101301.91
2022-10-05T22:59:22.822Z,101301.91
2022-10-05T23:01:49.455Z,101304.69
2022-10-05T23:04:16.169Z,101306.19
2022-10-05T23:06:42.757Z,101304.53
2022-10-05T23:09:09.584Z,101308.97
2022-10-05T23:11:36.287Z,101309.81
2022-10-05T23:14:03.037Z,101318.50
2022-10-05T23:16:29.871Z,101320.16
2022-10-05T23:18:56.984Z,101326.56
2022-10-05T23:24:14.463Z,101334.44
2022-10-05T23:26:41.220Z,101334.44
2022-10-05T23:29:08.170Z,101337.22
2022-10-05T23:31:36.969Z,101335.59
2022-10-05T23:34:03.548Z,101350.69
2022-10-05T23:36:33.386Z,101349.56
2022-10-05T23:39:00.462Z,101359.06
2022-10-05T23:41:27.285Z,101361.38
2022-10-05T23:43:55.232Z,101372.22
2022-10-05T23:46:22.609Z,101375.00
2022-10-05T23:48:50.427Z,101383.19
2022-10-05T23:51:17.632Z,101386.00
2022-10-05T23:53:45.052Z,101399.63
2022-10-05T23:56:12.087Z,101400.28
2022-10-05T23:58:38.994Z,101398.00
